createdAt,value
2023-01-29T00:00:29.417Z,3.97
2023-01-29T00:03:16.397Z,3.30
2023-01-29T00:06:06.646Z,3.40
2023-01-29T00:08:52.680Z,3.90
2023-01-29T00:11:38.600Z,3.20
2023-01-29T00:14:27.242Z,3.60
2023-01-29T00:17:15.151Z,3.40
2023-01-29T00:20:03.360Z,3.40
2023-01-29T00:22:48.770Z,3.60
2023-01-29T00:25:36.206Z,4.00
2023-01-29T00:28:21.478Z,4.10
2023-01-29T00:31:15.087Z,3.40
2023-01-29T00:34:01.467Z,3.90
2023-01-29T00:36:49.078Z,3.03
2023-01-29T00:39:47.351Z,2.70
2023-01-29T00:42:54.045Z,4.13
2023-01-29T00:45:42.190Z,4.20
2023-01-29T00:48:27.729Z,4.13
2023-01-29T00:51:15.614Z,4.50
2023-01-29T00:54:06.763Z,4.43
2023-01-29T00:56:54.650Z,4.10
2023-01-29T00:59:42.024Z,4.23
2023-01-29T01:02:46.355Z,4.60
2023-01-29T01:05:32.463Z,3.77
2023-01-29T01:08:36.934Z,4.50
2023-01-29T01:11:22.339Z,4.87
2023-01-29T01:14:08.485Z,4.70
2023-01-29T01:16:53.809Z,4.70
2023-01-29T01:19:39.076Z,4.50
2023-01-29T01:22:26.460Z,5.00
2023-01-29T01:25:12.423Z,4.30
2023-01-29T01:28:03.503Z,5.13
2023-01-29T01:30:49.414Z,4.90
2023-01-29T01:33:38.486Z,5.03
2023-01-29T01:36:28.972Z,5.20
2023-01-29T01:39:14.589Z,4.80
2023-01-29T01:42:00.748Z,5.30
2023-01-29T01:45:04.265Z,5.20
2023-01-29T01:47:56.743Z,5.60
2023-01-29T01:50:56.710Z,5.93
2023-01-29T01:53:48.402Z,6.73
2023-01-29T01:56:40.943Z,5.83
2023-01-29T01:59:27.725Z,5.73
2023-01-29T02:02:32.878Z,5.50
2023-01-29T02:05:37.042Z,6.13
2023-01-29T02:09:08.124Z,5.63
2023-01-29T02:11:55.776Z,5.50
2023-01-29T02:14:43.702Z,5.03
2023-01-29T02:17:31.903Z,4.97
2023-01-29T02:20:25.958Z,6.20
2023-01-29T02:23:37.898Z,5.77
2023-01-29T02:26:32.180Z,5.40
2023-01-29T02:29:50.539Z,5.17
2023-01-29T02:32:58.833Z,5.97
2023-01-29T02:35:53.279Z,5.27
2023-01-29T02:39:00.822Z,4.70
2023-01-29T02:42:11.693Z,5.90
2023-01-29T02:45:18.192Z,5.57
2023-01-29T02:48:04.302Z,5.07
2023-01-29T02:51:01.431Z,5.90
2023-01-29T02:54:13.049Z,4.97
2023-01-29T02:57:03.641Z,5.17
2023-01-29T02:59:51.177Z,5.07
2023-01-29T03:02:46.451Z,5.43
2023-01-29T03:05:33.211Z,5.53
2023-01-29T03:08:29.532Z,5.80
2023-01-29T03:11:16.425Z,5.30
2023-01-29T03:14:09.087Z,5.63
2023-01-29T03:16:54.889Z,6.13
2023-01-29T03:19:49.345Z,6.27
2023-01-29T03:22:36.940Z,5.00
2023-01-29T03:25:43.115Z,6.73
2023-01-29T03:28:48.675Z,6.57
2023-01-29T03:31:52.966Z,6.50
2023-01-29T03:34:51.988Z,5.90
2023-01-29T03:37:48.601Z,5.23
2023-01-29T03:40:55.084Z,5.53
2023-01-29T03:43:53.025Z,5.60
2023-01-29T03:46:45.292Z,5.47
2023-01-29T03:49:58.460Z,6.30
2023-01-29T03:52:53.386Z,5.20
2023-01-29T03:55:45.314Z,5.77
2023-01-29T03:58:50.961Z,4.97
2023-01-29T04:01:50.907Z,6.10
2023-01-29T04:04:39.654Z,6.40
2023-01-29T04:07:26.981Z,5.97
2023-01-29T04:10:19.836Z,5.23
2023-01-29T04:13:14.432Z,5.30
2023-01-29T04:16:01.335Z,5.97
2023-01-29T04:18:48.469Z,6.00
2023-01-29T04:21:38.158Z,5.77
2023-01-29T04:24:23.846Z,5.33
2023-01-29T04:27:41.275Z,5.83
2023-01-29T04:30:40.778Z,5.97
2023-01-29T04:33:44.172Z,6.23
2023-01-29T04:37:04.111Z,5.97
2023-01-29T04:40:00.630Z,6.10
2023-01-29T04:42:56.991Z,5.90
2023-01-29T04:46:09.592Z,6.50
2023-01-29T04:49:34.566Z,6.57
2023-01-29T04:52:49.672Z,6.33
2023-01-29T04:55:56.934Z,6.47
2023-01-29T04:58:47.462Z,5.10
2023-01-29T05:01:35.477Z,6.87
2023-01-29T05:04:25.619Z,6.30
2023-01-29T05:07:14.091Z,6.03
2023-01-29T05:09:59.967Z,5.87
2023-01-29T05:12:50.080Z,6.17
2023-01-29T05:15:42.132Z,7.00
2023-01-29T05:18:29.688Z,6.60
2023-01-29T05:21:15.165Z,6.50
2023-01-29T05:24:09.004Z,6.43
2023-01-29T05:27:13.642Z,7.40
2023-01-29T05:29:59.010Z,7.23
2023-01-29T05:32:44.465Z,6.27
2023-01-29T05:35:30.604Z,6.80
2023-01-29T05:38:18.172Z,6.70
2023-01-29T05:41:04.485Z,6.70
2023-01-29T05:43:50.283Z,7.47
2023-01-29T05:46:38.883Z,6.40
2023-01-29T05:49:24.569Z,7.07
2023-01-29T05:52:10.156Z,6.40
2023-01-29T05:54:55.547Z,7.10
2023-01-29T05:57:43.422Z,6.73
2023-01-29T06:00:30.895Z,6.90
2023-01-29T06:03:16.361Z,7.30
2023-01-29T06:06:02.621Z,7.70
2023-01-29T06:08:50.494Z,7.50
2023-01-29T06:11:37.910Z,7.80
2023-01-29T06:14:25.794Z,7.10
2023-01-29T06:17:11.370Z,7.93
2023-01-29T06:19:59.079Z,8.10
2023-01-29T06:22:46.393Z,8.67
2023-01-29T06:25:32.076Z,8.33
2023-01-29T06:28:17.401Z,7.13
2023-01-29T06:31:22.052Z,8.20
2023-01-29T06:34:11.196Z,8.67
2023-01-29T06:36:56.868Z,8.30
2023-01-29T06:39:42.173Z,8.27
2023-01-29T06:42:28.154Z,7.83
2023-01-29T06:45:14.470Z,7.87
2023-01-29T06:48:01.867Z,8.40
2023-01-29T06:50:55.013Z,7.87
2023-01-29T06:53:43.366Z,8.60
2023-01-29T06:56:30.360Z,6.97
2023-01-29T06:59:15.888Z,7.67
2023-01-29T07:02:01.482Z,8.73
2023-01-29T07:04:49.263Z,9.33
2023-01-29T07:07:36.819Z,8.70
2023-01-29T07:10:21.955Z,8.83
2023-01-29T07:13:07.430Z,9.23
2023-01-29T07:16:00.909Z,8.70
2023-01-29T07:18:46.580Z,8.53
2023-01-29T07:21:31.913Z,8.20
2023-01-29T07:24:17.250Z,8.20
2023-01-29T07:27:02.794Z,7.43
2023-01-29T07:29:47.950Z,7.10
2023-01-29T07:32:33.214Z,9.40
2023-01-29T07:35:19.101Z,8.53
2023-01-29T07:38:04.328Z,8.33
2023-01-29T07:40:54.094Z,7.80
2023-01-29T07:43:39.548Z,8.83
2023-01-29T07:46:27.141Z,8.77
2023-01-29T07:49:15.156Z,7.47
2023-01-29T07:52:00.455Z,8.63
2023-01-29T07:54:48.559Z,8.17
2023-01-29T07:57:33.834Z,8.07
2023-01-29T08:00:20.105Z,8.17
2023-01-29T08:03:09.668Z,9.53
2023-01-29T08:05:57.537Z,8.90
2023-01-29T08:08:43.549Z,8.70
2023-01-29T08:11:31.811Z,8.90
2023-01-29T08:14:17.074Z,7.43
2023-01-29T08:17:02.742Z,8.20
2023-01-29T08:19:48.334Z,8.93
2023-01-29T08:22:33.810Z,9.20
2023-01-29T08:25:21.370Z,8.70
2023-01-29T08:28:07.200Z,7.57
2023-01-29T08:30:52.614Z,9.40
2023-01-29T08:33:40.365Z,9.43
2023-01-29T08:36:26.585Z,7.93
2023-01-29T08:39:12.056Z,7.83
2023-01-29T08:41:57.809Z,8.97
2023-01-29T08:44:45.487Z,9.20
2023-01-29T08:47:30.769Z,8.63
2023-01-29T08:50:18.293Z,8.50
2023-01-29T08:53:08.581Z,8.20
2023-01-29T08:55:54.552Z,7.53
2023-01-29T08:58:39.805Z,8.67
2023-01-29T09:01:25.500Z,9.77
2023-01-29T09:04:10.689Z,8.80
2023-01-29T09:06:56.499Z,8.93
2023-01-29T09:09:41.733Z,9.27
2023-01-29T09:12:27.479Z,8.60
2023-01-29T09:15:13.024Z,7.80
2023-01-29T09:17:58.734Z,8.33
2023-01-29T09:20:46.121Z,8.23
2023-01-29T09:23:31.363Z,8.73
2023-01-29T09:26:19.009Z,7.53
2023-01-29T09:29:04.899Z,7.57
2023-01-29T09:31:50.719Z,7.87
2023-01-29T09:34:36.449Z,8.67
2023-01-29T09:37:23.447Z,9.33
2023-01-29T09:40:38.097Z,9.00
2023-01-29T09:43:40.784Z,9.17
2023-01-29T09:46:45.272Z,7.80
2023-01-29T09:49:37.822Z,7.70
2023-01-29T09:52:27.902Z,9.20
2023-01-29T09:55:26.246Z,8.20
2023-01-29T09:58:24.791Z,9.63
2023-01-29T10:01:34.953Z,6.80
2023-01-29T10:04:35.170Z,7.60
2023-01-29T10:08:01.297Z,6.80
2023-01-29T10:11:01.111Z,7.50
2023-01-29T10:14:45.195Z,8.00
2023-01-29T10:17:41.469Z,8.97
2023-01-29T10:20:46.480Z,7.60
2023-01-29T10:23:38.387Z,7.60
2023-01-29T10:26:27.162Z,7.00
2023-01-29T10:29:18.641Z,6.33
2023-01-29T10:32:05.994Z,6.77
2023-01-29T10:34:57.472Z,7.10
2023-01-29T10:37:43.869Z,6.90
2023-01-29T10:41:00.235Z,6.30
2023-01-29T10:43:54.431Z,6.07
2023-01-29T10:46:51.003Z,5.90
2023-01-29T10:49:44.263Z,5.77
2023-01-29T10:52:38.693Z,6.60
2023-01-29T10:55:51.420Z,6.40
2023-01-29T10:58:46.785Z,6.43
2023-01-29T11:01:32.438Z,6.30
2023-01-29T11:04:18.660Z,6.13
2023-01-29T11:07:07.084Z,6.23
2023-01-29T11:10:17.299Z,5.80
2023-01-29T11:13:07.472Z,7.60
2023-01-29T11:15:53.759Z,6.00
2023-01-29T11:18:51.404Z,5.33
2023-01-29T11:21:59.236Z,6.60
2023-01-29T11:24:47.598Z,5.73
2023-01-29T11:27:35.653Z,5.60
2023-01-29T11:30:26.351Z,5.07
2023-01-29T11:33:24.367Z,5.60
2023-01-29T11:36:35.165Z,6.57
2023-01-29T11:39:23.341Z,4.83
2023-01-29T11:42:22.339Z,5.70
2023-01-29T11:45:33.932Z,6.13
2023-01-29T11:48:23.519Z,5.83
2023-01-29T11:51:12.497Z,5.63
2023-01-29T11:54:02.072Z,5.97
2023-01-29T11:56:48.915Z,5.70
2023-01-29T11:59:49.980Z,5.47
2023-01-29T12:02:44.180Z,5.57
2023-01-29T12:05:31.946Z,5.87
2023-01-29T12:08:18.899Z,5.53
2023-01-29T12:11:11.225Z,5.60
2023-01-29T12:14:05.186Z,5.93
2023-01-29T12:17:03.817Z,5.20
2023-01-29T12:19:59.103Z,5.23
2023-01-29T12:22:58.059Z,5.90
2023-01-29T12:25:58.585Z,5.03
2023-01-29T12:29:21.618Z,5.80
2023-01-29T12:32:26.005Z,5.13
2023-01-29T12:35:23.166Z,5.90
2023-01-29T12:38:20.891Z,5.17
2023-01-29T12:41:11.614Z,5.80
2023-01-29T12:44:05.736Z,4.73
2023-01-29T12:46:56.679Z,5.20
2023-01-29T12:49:45.908Z,5.97
2023-01-29T12:52:46.211Z,5.80
2023-01-29T12:55:41.940Z,4.77
2023-01-29T12:58:36.554Z,4.80
2023-01-29T13:01:40.807Z,5.50
2023-01-29T13:04:45.550Z,5.00
2023-01-29T13:07:42.309Z,5.13
2023-01-29T13:10:37.250Z,5.80
2023-01-29T13:13:28.951Z,5.47
2023-01-29T13:16:15.952Z,5.37
2023-01-29T13:19:15.117Z,6.30
2023-01-29T13:22:10.904Z,4.90
2023-01-29T13:25:05.055Z,5.00
2023-01-29T13:27:54.469Z,5.10
2023-01-29T13:30:40.678Z,4.80
2023-01-29T13:33:28.638Z,5.20
2023-01-29T13:36:19.519Z,4.47
2023-01-29T13:39:19.195Z,5.50
2023-01-29T13:42:21.895Z,5.17
2023-01-29T13:45:10.126Z,6.00
2023-01-29T13:48:21.981Z,6.20
2023-01-29T13:51:17.772Z,4.80
2023-01-29T13:54:08.026Z,5.37
2023-01-29T13:56:59.245Z,5.00
2023-01-29T13:59:54.100Z,5.20
2023-01-29T14:02:39.591Z,5.43
2023-01-29T14:05:31.309Z,5.60
2023-01-29T14:08:35.151Z,6.53
2023-01-29T14:11:21.643Z,5.60
2023-01-29T14:14:45.829Z,5.43
2023-01-29T14:17:31.458Z,5.37
2023-01-29T14:20:20.800Z,6.20
2023-01-29T14:23:08.661Z,6.20
2023-01-29T14:25:56.957Z,5.90
2023-01-29T14:28:43.959Z,6.57
2023-01-29T14:31:51.881Z,7.07
2023-01-29T14:34:47.769Z,6.00
2023-01-29T14:37:36.827Z,6.27
2023-01-29T14:40:27.509Z,6.90
2023-01-29T14:43:21.048Z,7.60
2023-01-29T14:46:36.779Z,6.90
2023-01-29T14:49:51.744Z,7.70
2023-01-29T14:52:41.598Z,8.17
2023-01-29T14:56:07.869Z,6.87
2023-01-29T14:59:02.354Z,7.07
2023-01-29T15:01:58.459Z,6.50
2023-01-29T15:04:53.513Z,7.00
2023-01-29T15:08:08.584Z,6.73
2023-01-29T15:11:19.062Z,7.33
2023-01-29T15:14:29.645Z,6.50
2023-01-29T15:17:27.546Z,7.13
2023-01-29T15:20:38.188Z,6.73
2023-01-29T15:23:32.601Z,7.57
2023-01-29T15:26:27.007Z,8.53
2023-01-29T15:29:25.011Z,7.50
2023-01-29T15:32:17.669Z,6.93
2023-01-29T15:35:28.361Z,7.60
2023-01-29T15:38:21.170Z,8.23
2023-01-29T15:41:24.283Z,6.50
2023-01-29T15:44:24.439Z,7.37
2023-01-29T15:47:10.126Z,6.07
2023-01-29T15:49:57.449Z,7.43
2023-01-29T15:52:45.997Z,7.30
2023-01-29T15:55:32.534Z,6.93
2023-01-29T15:58:30.361Z,7.17
2023-01-29T16:01:16.758Z,6.60
2023-01-29T16:04:03.803Z,6.50
2023-01-29T16:06:51.905Z,7.63
2023-01-29T16:09:40.510Z,7.30
2023-01-29T16:12:26.279Z,6.27
2023-01-29T16:15:20.252Z,7.73
2023-01-29T16:18:35.169Z,6.57
2023-01-29T16:21:43.530Z,6.40
2023-01-29T16:24:31.115Z,7.50
2023-01-29T16:27:19.785Z,6.73
2023-01-29T16:30:07.192Z,5.93
2023-01-29T16:32:52.785Z,7.43
2023-01-29T16:35:38.650Z,7.90
2023-01-29T16:38:31.129Z,7.80
2023-01-29T16:41:22.892Z,6.90
2023-01-29T16:44:20.375Z,7.97
2023-01-29T16:47:13.917Z,6.60
2023-01-29T16:50:01.307Z,8.07
2023-01-29T16:53:27.369Z,8.20
2023-01-29T16:56:12.768Z,7.30
2023-01-29T16:59:01.893Z,7.53
2023-01-29T17:01:51.809Z,6.43
2023-01-29T17:04:41.926Z,7.20
2023-01-29T17:07:29.082Z,7.53
2023-01-29T17:10:23.048Z,6.70
2023-01-29T17:13:16.925Z,7.60
2023-01-29T17:16:15.399Z,7.03
2023-01-29T17:19:01.919Z,7.53
2023-01-29T17:21:48.396Z,6.87
2023-01-29T17:24:33.982Z,7.43
2023-01-29T17:27:21.591Z,6.37
2023-01-29T17:30:16.091Z,7.33
2023-01-29T17:33:02.921Z,7.33
2023-01-29T17:35:49.731Z,8.03
2023-01-29T17:38:35.510Z,6.43
2023-01-29T17:41:27.721Z,7.33
2023-01-29T17:44:13.042Z,7.23
2023-01-29T17:46:58.668Z,7.13
2023-01-29T17:49:46.697Z,6.97
2023-01-29T17:52:32.260Z,6.60
2023-01-29T17:55:20.566Z,7.17
2023-01-29T17:58:05.926Z,6.10
2023-01-29T18:00:52.683Z,6.47
2023-01-29T18:03:38.588Z,7.50
2023-01-29T18:06:29.406Z,6.33
2023-01-29T18:09:18.864Z,6.87
2023-01-29T18:12:10.267Z,7.43
2023-01-29T18:14:56.061Z,7.10
2023-01-29T18:17:42.335Z,7.17
2023-01-29T18:20:27.884Z,5.97
2023-01-29T18:23:13.612Z,7.00
2023-01-29T18:25:59.579Z,5.70
2023-01-29T18:28:45.250Z,6.43
2023-01-29T18:31:31.442Z,6.47
2023-01-29T18:34:16.929Z,5.50
2023-01-29T18:37:02.212Z,6.57
2023-01-29T18:39:47.539Z,6.30
2023-01-29T18:42:36.136Z,4.90
2023-01-29T18:45:24.499Z,6.60
2023-01-29T18:48:10.365Z,6.20
2023-01-29T18:50:55.656Z,5.63
2023-01-29T18:53:41.112Z,5.93
2023-01-29T18:56:26.304Z,6.10
2023-01-29T18:59:12.448Z,5.53
2023-01-29T19:01:58.125Z,6.03
2023-01-29T19:04:43.561Z,5.90
2023-01-29T19:07:29.035Z,6.33
2023-01-29T19:10:17.008Z,5.90
2023-01-29T19:13:02.606Z,5.17
2023-01-29T19:15:50.360Z,5.90
2023-01-29T19:18:35.882Z,6.37
2023-01-29T19:21:21.779Z,5.30
2023-01-29T19:24:10.623Z,6.70
2023-01-29T19:26:55.890Z,6.13
2023-01-29T19:29:43.839Z,6.43
2023-01-29T19:32:30.140Z,5.60
2023-01-29T19:35:16.047Z,5.60
2023-01-29T19:38:01.877Z,5.60
2023-01-29T19:40:51.315Z,5.17
2023-01-29T19:43:41.953Z,5.80
2023-01-29T19:46:29.038Z,5.87
2023-01-29T19:49:20.744Z,6.47
2023-01-29T19:52:14.928Z,5.53
2023-01-29T19:55:07.203Z,6.23
2023-01-29T19:57:57.043Z,4.90
2023-01-29T20:00:44.953Z,5.27
2023-01-29T20:03:30.893Z,5.13
2023-01-29T20:06:19.368Z,6.00
2023-01-29T20:09:08.575Z,5.00
2023-01-29T20:11:56.039Z,4.33
2023-01-29T20:14:48.569Z,4.20
2023-01-29T20:17:34.279Z,4.07
2023-01-29T20:20:22.190Z,4.40
2023-01-29T20:23:15.539Z,4.17
2023-01-29T20:26:03.467Z,4.83
2023-01-29T20:28:49.135Z,5.17
2023-01-29T20:31:37.382Z,4.30
2023-01-29T20:34:24.031Z,4.63
2023-01-29T20:37:09.582Z,4.73
2023-01-29T20:39:57.543Z,4.30
2023-01-29T20:42:45.356Z,4.03
2023-01-29T20:45:33.476Z,4.03
2023-01-29T20:48:19.564Z,4.50
2023-01-29T20:51:08.168Z,4.23
2023-01-29T20:53:55.601Z,4.43
2023-01-29T20:56:47.819Z,4.53
2023-01-29T20:59:34.014Z,5.13
2023-01-29T21:02:19.863Z,3.37
2023-01-29T21:05:06.571Z,3.77
2023-01-29T21:07:54.184Z,3.70
2023-01-29T21:10:41.003Z,3.90
2023-01-29T21:13:27.796Z,3.97
2023-01-29T21:16:14.290Z,4.50
2023-01-29T21:19:00.430Z,3.83
2023-01-29T21:21:45.997Z,3.73
2023-01-29T21:24:31.585Z,4.20
2023-01-29T21:27:17.009Z,4.83
2023-01-29T21:30:10.297Z,5.00
2023-01-29T21:32:55.689Z,4.50
2023-01-29T21:35:46.212Z,3.80
2023-01-29T21:38:31.547Z,4.43
2023-01-29T21:41:19.200Z,4.23
2023-01-29T21:44:04.811Z,4.67
2023-01-29T21:46:50.396Z,4.70
2023-01-29T21:49:35.836Z,3.47
2023-01-29T21:52:21.605Z,4.07
2023-01-29T21:55:12.253Z,4.60
2023-01-29T21:57:58.743Z,4.33
2023-01-29T22:00:48.656Z,4.23
2023-01-29T22:03:34.358Z,3.87
2023-01-29T22:06:20.145Z,4.80
2023-01-29T22:09:05.755Z,4.67
2023-01-29T22:11:55.272Z,4.33
2023-01-29T22:14:41.994Z,4.80
2023-01-29T22:17:28.464Z,4.13
2023-01-29T22:20:14.732Z,4.20
2023-01-29T22:23:00.845Z,4.57
2023-01-29T22:25:48.876Z,4.53
2023-01-29T22:28:34.165Z,4.07
2023-01-29T22:31:19.936Z,3.40
2023-01-29T22:34:05.712Z,5.20
2023-01-29T22:36:53.861Z,5.67
2023-01-29T22:39:39.384Z,4.47
2023-01-29T22:42:24.684Z,3.93
2023-01-29T22:45:11.168Z,4.30
2023-01-29T22:48:00.023Z,3.97
2023-01-29T22:50:53.879Z,4.20
2023-01-29T22:53:44.194Z,4.37
2023-01-29T22:56:30.680Z,4.83
2023-01-29T22:59:16.004Z,4.27
2023-01-29T23:02:01.369Z,4.73
2023-01-29T23:04:49.427Z,4.40
2023-01-29T23:07:34.952Z,3.90
2023-01-29T23:10:20.524Z,3.07
2023-01-29T23:13:09.562Z,4.43
2023-01-29T23:15:59.643Z,4.23
2023-01-29T23:18:50.182Z,4.20
2023-01-29T23:21:35.590Z,4.43
2023-01-29T23:24:21.177Z,4.17
2023-01-29T23:27:16.001Z,4.23
2023-01-29T23:30:01.916Z,4.20
2023-01-29T23:32:47.747Z,4.17
2023-01-29T23:35:33.216Z,3.50
2023-01-29T23:38:21.402Z,3.73
2023-01-29T23:41:06.696Z,3.97
2023-01-29T23:43:55.490Z,4.50
2023-01-29T23:46:48.728Z,4.73
2023-01-29T23:49:34.869Z,3.67
2023-01-29T23:52:20.481Z,4.37
2023-01-29T23:55:06.519Z,5.03
2023-01-29T23:57:51.847Z,5.03
